sensor_id;sensor_type;location;lat;lon;timestamp;pressure;altitude;pressure_sealevel;temperature;humidity
57250;BME280;43102;52.014;-0.680;2022-08-24T00:00:00;100633;;;21.97;72.91
57250;BME280;43102;52.014;-0.680;2022-08-24T00:01:00;100633;;;21.97;72.91
57250;BME280;43102;52.014;-0.680;2022-08-24T00:02:00;100633;;;21.97;72.91
57250;BME280;43102;52.014;-0.680;2022-08-24T00:03:00;100627;;;21.92;73.09
57250;BME280;43102;52.014;-0.680;2022-08-24T00:04:00;100627;;;21.92;73.09
57250;BME280;43102;52.014;-0.680;2022-08-24T00:05:00;100627;;;21.92;73.09
57250;BME280;43102;52.014;-0.680;2022-08-24T00:06:00;100627;;;21.92;73.09
57250;BME280;43102;52.014;-0.680;2022-08-24T00:07:00;100627;;;21.92;73.09
57250;BME280;43102;52.014;-0.680;2022-08-24T00:08:00;100621;;;21.93;73.12
57250;BME280;43102;52.014;-0.680;2022-08-24T00:09:00;100621;;;21.93;73.12
57250;BME280;43102;52.014;-0.680;2022-08-24T00:10:00;100621;;;21.93;73.12
57250;BME280;43102;52.014;-0.680;2022-08-24T00:11:00;100621;;;21.93;73.12
57250;BME280;43102;52.014;-0.680;2022-08-24T00:12:00;100621;;;21.93;73.12
57250;BME280;43102;52.014;-0.680;2022-08-24T00:13:00;100618;;;21.92;72.83
57250;BME280;43102;52.014;-0.680;2022-08-24T00:14:00;100618;;;21.92;72.83
57250;BME280;43102;52.014;-0.680;2022-08-24T00:15:00;100618;;;21.92;72.83
57250;BME280;43102;52.014;-0.680;2022-08-24T00:16:00;100618;;;21.92;72.83
57250;BME280;43102;52.014;-0.680;2022-08-24T00:17:00;100618;;;21.92;72.83
57250;BME280;43102;52.014;-0.680;2022-08-24T00:18:00;100626;;;21.82;73.02
57250;BME280;43102;52.014;-0.680;2022-08-24T00:19:00;100626;;;21.82;73.02
57250;BME280;43102;52.014;-0.680;2022-08-24T00:20:00;100626;;;21.82;73.02
57250;BME280;43102;52.014;-0.680;2022-08-24T00:21:00;100626;;;21.82;73.02
57250;BME280;43102;52.014;-0.680;2022-08-24T00:22:00;100626;;;21.82;73.02
57250;BME280;43102;52.014;-0.680;2022-08-24T00:23:00;100633;;;21.69;73.73
57250;BME280;43102;52.014;-0.680;2022-08-24T00:24:00;100633;;;21.69;73.73
57250;BME280;43102;52.014;-0.680;2022-08-24T00:25:00;100633;;;21.69;73.73
57250;BME280;43102;52.014;-0.680;2022-08-24T00:26:00;100633;;;21.69;73.73
57250;BME280;43102;52.014;-0.680;2022-08-24T00:27:00;100633;;;21.69;73.73
57250;BME280;43102;52.014;-0.680;2022-08-24T00:28:00;100640;;;21.74;73.03
57250;BME280;43102;52.014;-0.680;2022-08-24T00:29:00;100640;;;21.74;73.03
57250;BME280;43102;52.014;-0.680;2022-08-24T00:30:00;100640;;;21.74;73.03
57250;BME280;43102;52.014;-0.680;2022-08-24T00:31:00;100640;;;21.74;73.03
57250;BME280;43102;52.014;-0.680;2022-08-24T00:32:00;100640;;;21.74;73.03
57250;BME280;43102;52.014;-0.680;2022-08-24T00:33:00;100642;;;21.71;72.79
57250;BME280;43102;52.014;-0.680;2022-08-24T00:34:00;100642;;;21.71;72.79
57250;BME280;43102;52.014;-0.680;2022-08-24T00:35:00;100642;;;21.71;72.79
57250;BME280;43102;52.014;-0.680;2022-08-24T00:36:00;100642;;;21.71;72.79
57250;BME280;43102;52.014;-0.680;2022-08-24T00:37:00;100642;;;21.71;72.79
57250;BME280;43102;52.014;-0.680;2022-08-24T00:38:00;100649;;;21.65;73.05
57250;BME280;43102;52.014;-0.680;2022-08-24T00:39:00;100649;;;21.65;73.05
57250;BME280;43102;52.014;-0.680;2022-08-24T00:40:00;100649;;;21.65;73.05
57250;BME280;43102;52.014;-0.680;2022-08-24T00:41:00;100649;;;21.65;73.05
57250;BME280;43102;52.014;-0.680;2022-08-24T00:42:00;100649;;;21.65;73.05
57250;BME280;43102;52.014;-0.680;2022-08-24T00:43:00;100648;;;21.61;73.43
57250;BME280;43102;52.014;-0.680;2022-08-24T00:44:02;100648;;;21.61;73.43
57250;BME280;43102;52.014;-0.680;2022-08-24T00:45:00;100648;;;21.61;73.43
57250;BME280;43102;52.014;-0.680;2022-08-24T00:47:04;100648;;;21.61;73.43
57250;BME280;43102;52.014;-0.680;2022-08-24T00:48:01;100641;;;21.59;73.26
57250;BME280;43102;52.014;-0.680;2022-08-24T00:49:04;100641;;;21.59;73.26
57250;BME280;43102;52.014;-0.680;2022-08-24T00:50:02;100641;;;21.59;73.26
57250;BME280;43102;52.014;-0.680;2022-08-24T00:51:02;100641;;;21.59;73.26
57250;BME280;43102;52.014;-0.680;2022-08-24T00:52:02;100641;;;21.59;73.26
57250;BME280;43102;52.014;-0.680;2022-08-24T00:53:02;100637;;;21.62;72.87
57250;BME280;43102;52.014;-0.680;2022-08-24T00:54:01;100637;;;21.62;72.87
57250;BME280;43102;52.014;-0.680;2022-08-24T00:55:01;100637;;;21.62;72.87
57250;BME280;43102;52.014;-0.680;2022-08-24T00:56:00;100637;;;21.62;72.87
57250;BME280;43102;52.014;-0.680;2022-08-24T00:57:01;100637;;;21.62;72.87
57250;BME280;43102;52.014;-0.680;2022-08-24T00:58:01;100637;;;21.63;72.91
57250;BME280;43102;52.014;-0.680;2022-08-24T00:59:01;100637;;;21.63;72.91
57250;BME280;43102;52.014;-0.680;2022-08-24T01:00:06;100637;;;21.63;72.91
57250;BME280;43102;52.014;-0.680;2022-08-24T01:01:00;100637;;;21.63;72.91
57250;BME280;43102;52.014;-0.680;2022-08-24T01:02:02;100637;;;21.63;72.91
57250;BME280;43102;52.014;-0.680;2022-08-24T01:03:02;100631;;;21.65;72.95
57250;BME280;43102;52.014;-0.680;2022-08-24T01:04:00;100631;;;21.65;72.95
57250;BME280;43102;52.014;-0.680;2022-08-24T01:05:01;100631;;;21.65;72.95
57250;BME280;43102;52.014;-0.680;2022-08-24T01:06:00;100631;;;21.65;72.95
57250;BME280;43102;52.014;-0.680;2022-08-24T01:07:00;100631;;;21.65;72.95
57250;BME280;43102;52.014;-0.680;2022-08-24T01:08:01;100631;;;21.58;72.83
57250;BME280;43102;52.014;-0.680;2022-08-24T01:09:00;100631;;;21.58;72.83
57250;BME280;43102;52.014;-0.680;2022-08-24T01:10:00;100631;;;21.58;72.83
57250;BME280;43102;52.014;-0.680;2022-08-24T01:11:00;100631;;;21.58;72.83
57250;BME280;43102;52.014;-0.680;2022-08-24T01:12:00;100631;;;21.58;72.83
57250;BME280;43102;52.014;-0.680;2022-08-24T01:13:01;100630;;;21.49;73.30
57250;BME280;43102;52.014;-0.680;2022-08-24T01:14:00;100630;;;21.49;73.30
57250;BME280;43102;52.014;-0.680;2022-08-24T01:15:00;100630;;;21.49;73.30
57250;BME280;43102;52.014;-0.680;2022-08-24T01:16:01;100630;;;21.49;73.30
57250;BME280;43102;52.014;-0.680;2022-08-24T01:17:00;100630;;;21.49;73.30
57250;BME280;43102;52.014;-0.680;2022-08-24T01:18:00;100640;;;21.45;73.27
57250;BME280;43102;52.014;-0.680;2022-08-24T01:19:00;100640;;;21.45;73.27
57250;BME280;43102;52.014;-0.680;2022-08-24T01:20:00;100640;;;21.45;73.27
57250;BME280;43102;52.014;-0.680;2022-08-24T01:21:03;100640;;;21.45;73.27
57250;BME280;43102;52.014;-0.680;2022-08-24T01:23:10;100635;;;21.37;73.44
57250;BME280;43102;52.014;-0.680;2022-08-24T01:24:01;100635;;;21.37;73.44
57250;BME280;43102;52.014;-0.680;2022-08-24T01:25:00;100635;;;21.37;73.44
57250;BME280;43102;52.014;-0.680;2022-08-24T01:26:00;100635;;;21.37;73.44
57250;BME280;43102;52.014;-0.680;2022-08-24T01:27:00;100635;;;21.37;73.44
57250;BME280;43102;52.014;-0.680;2022-08-24T01:28:03;100637;;;21.39;73.12
57250;BME280;43102;52.014;-0.680;2022-08-24T01:29:04;100637;;;21.39;73.12
57250;BME280;43102;52.014;-0.680;2022-08-24T01:30:00;100637;;;21.39;73.12
57250;BME280;43102;52.014;-0.680;2022-08-24T01:31:00;100637;;;21.39;73.12
57250;BME280;43102;52.014;-0.680;2022-08-24T01:32:00;100637;;;21.39;73.12
57250;BME280;43102;52.014;-0.680;2022-08-24T01:33:01;100632;;;21.38;73.20
57250;BME280;43102;52.014;-0.680;2022-08-24T01:34:00;100632;;;21.38;73.20
57250;BME280;43102;52.014;-0.680;2022-08-24T01:35:00;100632;;;21.38;73.20
57250;BME280;43102;52.014;-0.680;2022-08-24T01:36:01;100632;;;21.38;73.20
57250;BME280;43102;52.014;-0.680;2022-08-24T01:37:00;100632;;;21.38;73.20
57250;BME280;43102;52.014;-0.680;2022-08-24T01:38:00;100631;;;21.40;73.20
57250;BME280;43102;52.014;-0.680;2022-08-24T01:39:02;100631;;;21.40;73.20
57250;BME280;43102;52.014;-0.680;2022-08-24T01:40:00;100631;;;21.40;73.20
57250;BME280;43102;52.014;-0.680;2022-08-24T01:41:00;100631;;;21.40;73.20
57250;BME280;43102;52.014;-0.680;2022-08-24T01:42:00;100631;;;21.40;73.20
57250;BME280;43102;52.014;-0.680;2022-08-24T01:43:00;100643;;;21.30;74.21
57250;BME280;43102;52.014;-0.680;2022-08-24T01:44:00;100643;;;21.30;74.21
57250;BME280;43102;52.014;-0.680;2022-08-24T01:45:00;100643;;;21.30;74.21
57250;BME280;43102;52.014;-0.680;2022-08-24T01:46:00;100643;;;21.30;74.21
57250;BME280;43102;52.014;-0.680;2022-08-24T01:47:00;100643;;;21.30;74.21
57250;BME280;43102;52.014;-0.680;2022-08-24T01:48:00;100641;;;21.36;73.52
57250;BME280;43102;52.014;-0.680;2022-08-24T01:49:00;100641;;;21.36;73.52
57250;BME280;43102;52.014;-0.680;2022-08-24T01:50:00;100641;;;21.36;73.52
57250;BME280;43102;52.014;-0.680;2022-08-24T01:51:00;100641;;;21.36;73.52
57250;BME280;43102;52.014;-0.680;2022-08-24T01:52:00;100641;;;21.36;73.52
57250;BME280;43102;52.014;-0.680;2022-08-24T01:53:01;100640;;;21.38;73.50
57250;BME280;43102;52.014;-0.680;2022-08-24T01:54:00;100640;;;21.38;73.50
57250;BME280;43102;52.014;-0.680;2022-08-24T01:55:00;100640;;;21.38;73.50
57250;BME280;43102;52.014;-0.680;2022-08-24T01:56:00;100640;;;21.38;73.50
57250;BME280;43102;52.014;-0.680;2022-08-24T01:57:00;100640;;;21.38;73.50
57250;BME280;43102;52.014;-0.680;2022-08-24T01:58:00;100646;;;21.38;73.35
57250;BME280;43102;52.014;-0.680;2022-08-24T01:59:00;100646;;;21.38;73.35
57250;BME280;43102;52.014;-0.680;2022-08-24T02:00:00;100646;;;21.38;73.35
57250;BME280;43102;52.014;-0.680;2022-08-24T02:01:00;100646;;;21.38;73.35
57250;BME280;43102;52.014;-0.680;2022-08-24T02:02:01;100646;;;21.38;73.35
57250;BME280;43102;52.014;-0.680;2022-08-24T02:03:00;100651;;;21.37;73.39
57250;BME280;43102;52.014;-0.680;2022-08-24T02:04:00;100651;;;21.37;73.39
57250;BME280;43102;52.014;-0.680;2022-08-24T02:05:00;100651;;;21.37;73.39
57250;BME280;43102;52.014;-0.680;2022-08-24T02:06:00;100651;;;21.37;73.39
57250;BME280;43102;52.014;-0.680;2022-08-24T02:07:00;100651;;;21.37;73.39
57250;BME280;43102;52.014;-0.680;2022-08-24T02:08:00;100650;;;21.38;73.28
57250;BME280;43102;52.014;-0.680;2022-08-24T02:09:00;100650;;;21.38;73.28
57250;BME280;43102;52.014;-0.680;2022-08-24T02:10:00;100650;;;21.38;73.28
57250;BME280;43102;52.014;-0.680;2022-08-24T02:11:00;100650;;;21.38;73.28
57250;BME280;43102;52.014;-0.680;2022-08-24T02:12:00;100650;;;21.38;73.28
57250;BME280;43102;52.014;-0.680;2022-08-24T02:13:00;100652;;;21.35;73.68
57250;BME280;43102;52.014;-0.680;2022-08-24T02:14:00;100652;;;21.35;73.68
57250;BME280;43102;52.014;-0.680;2022-08-24T02:15:00;100652;;;21.35;73.68
57250;BME280;43102;52.014;-0.680;2022-08-24T02:16:00;100652;;;21.35;73.68
57250;BME280;43102;52.014;-0.680;2022-08-24T02:17:00;100652;;;21.35;73.68
57250;BME280;43102;52.014;-0.680;2022-08-24T02:18:00;100645;;;21.36;73.53
57250;BME280;43102;52.014;-0.680;2022-08-24T02:19:00;100645;;;21.36;73.53
57250;BME280;43102;52.014;-0.680;2022-08-24T02:20:00;100645;;;21.36;73.53
57250;BME280;43102;52.014;-0.680;2022-08-24T02:21:00;100645;;;21.36;73.53
57250;BME280;43102;52.014;-0.680;2022-08-24T02:22:00;100645;;;21.36;73.53
57250;BME280;43102;52.014;-0.680;2022-08-24T02:23:00;100646;;;21.32;73.82
57250;BME280;43102;52.014;-0.680;2022-08-24T02:24:00;100646;;;21.32;73.82
57250;BME280;43102;52.014;-0.680;2022-08-24T02:25:00;100646;;;21.32;73.82
57250;BME280;43102;52.014;-0.680;2022-08-24T02:26:00;100646;;;21.32;73.82
57250;BME280;43102;52.014;-0.680;2022-08-24T02:27:00;100646;;;21.32;73.82
57250;BME280;43102;52.014;-0.680;2022-08-24T02:28:00;100650;;;21.38;73.91
57250;BME280;43102;52.014;-0.680;2022-08-24T02:29:00;100650;;;21.38;73.91
57250;BME280;43102;52.014;-0.680;2022-08-24T02:30:00;100650;;;21.38;73.91
57250;BME280;43102;52.014;-0.680;2022-08-24T02:31:00;100650;;;21.38;73.91
57250;BME280;43102;52.014;-0.680;2022-08-24T02:32:00;100650;;;21.38;73.91
57250;BME280;43102;52.014;-0.680;2022-08-24T02:33:00;100647;;;21.31;73.98
57250;BME280;43102;52.014;-0.680;2022-08-24T02:34:00;100647;;;21.31;73.98
57250;BME280;43102;52.014;-0.680;2022-08-24T02:35:00;100647;;;21.31;73.98
57250;BME280;43102;52.014;-0.680;2022-08-24T02:36:00;100647;;;21.31;73.98
57250;BME280;43102;52.014;-0.680;2022-08-24T02:37:00;100647;;;21.31;73.98
57250;BME280;43102;52.014;-0.680;2022-08-24T02:38:00;100647;;;21.36;73.79
57250;BME280;43102;52.014;-0.680;2022-08-24T02:39:00;100647;;;21.36;73.79
57250;BME280;43102;52.014;-0.680;2022-08-24T02:40:00;100647;;;21.36;73.79
57250;BME280;43102;52.014;-0.680;2022-08-24T02:41:00;100647;;;21.36;73.79
57250;BME280;43102;52.014;-0.680;2022-08-24T02:42:00;100647;;;21.36;73.79
57250;BME280;43102;52.014;-0.680;2022-08-24T02:43:00;100652;;;21.35;74.30
57250;BME280;43102;52.014;-0.680;2022-08-24T02:44:00;100652;;;21.35;74.30
57250;BME280;43102;52.014;-0.680;2022-08-24T02:45:00;100652;;;21.35;74.30
57250;BME280;43102;52.014;-0.680;2022-08-24T02:46:00;100652;;;21.35;74.30
57250;BME280;43102;52.014;-0.680;2022-08-24T02:47:00;100652;;;21.35;74.30
57250;BME280;43102;52.014;-0.680;2022-08-24T02:48:00;100650;;;21.36;74.08
57250;BME280;43102;52.014;-0.680;2022-08-24T02:49:00;100650;;;21.36;74.08
57250;BME280;43102;52.014;-0.680;2022-08-24T02:50:00;100650;;;21.36;74.08
57250;BME280;43102;52.014;-0.680;2022-08-24T02:51:00;100650;;;21.36;74.08
57250;BME280;43102;52.014;-0.680;2022-08-24T02:52:00;100650;;;21.36;74.08
57250;BME280;43102;52.014;-0.680;2022-08-24T02:53:00;100648;;;21.33;74.03
57250;BME280;43102;52.014;-0.680;2022-08-24T02:54:00;100648;;;21.33;74.03
57250;BME280;43102;52.014;-0.680;2022-08-24T02:55:00;100648;;;21.33;74.03
57250;BME280;43102;52.014;-0.680;2022-08-24T02:56:00;100648;;;21.33;74.03
57250;BME280;43102;52.014;-0.680;2022-08-24T02:57:00;100648;;;21.33;74.03
57250;BME280;43102;52.014;-0.680;2022-08-24T02:58:00;100644;;;21.34;74.07
57250;BME280;43102;52.014;-0.680;2022-08-24T02:59:00;100644;;;21.34;74.07
57250;BME280;43102;52.014;-0.680;2022-08-24T03:00:00;100644;;;21.34;74.07
57250;BME280;43102;52.014;-0.680;2022-08-24T03:01:00;100644;;;21.34;74.07
57250;BME280;43102;52.014;-0.680;2022-08-24T03:02:00;100644;;;21.34;74.07
57250;BME280;43102;52.014;-0.680;2022-08-24T03:03:00;100641;;;21.35;73.97
57250;BME280;43102;52.014;-0.680;2022-08-24T03:04:00;100641;;;21.35;73.97
57250;BME280;43102;52.014;-0.680;2022-08-24T03:05:00;100641;;;21.35;73.97
57250;BME280;43102;52.014;-0.680;2022-08-24T03:06:00;100641;;;21.35;73.97
57250;BME280;43102;52.014;-0.680;2022-08-24T03:07:00;100641;;;21.35;73.97
57250;BME280;43102;52.014;-0.680;2022-08-24T03:08:00;100640;;;21.32;74.26
57250;BME280;43102;52.014;-0.680;2022-08-24T03:09:00;100640;;;21.32;74.26
57250;BME280;43102;52.014;-0.680;2022-08-24T03:10:00;100640;;;21.32;74.26
57250;BME280;43102;52.014;-0.680;2022-08-24T03:11:00;100640;;;21.32;74.26
57250;BME280;43102;52.014;-0.680;2022-08-24T03:12:00;100640;;;21.32;74.26
57250;BME280;43102;52.014;-0.680;2022-08-24T03:13:00;100635;;;21.28;74.62
57250;BME280;43102;52.014;-0.680;2022-08-24T03:14:00;100635;;;21.28;74.62
57250;BME280;43102;52.014;-0.680;2022-08-24T03:15:00;100635;;;21.28;74.62
57250;BME280;43102;52.014;-0.680;2022-08-24T03:16:00;100635;;;21.28;74.62
57250;BME280;43102;52.014;-0.680;2022-08-24T03:17:00;100635;;;21.28;74.62
57250;BME280;43102;52.014;-0.680;2022-08-24T03:18:00;100630;;;21.25;74.23
57250;BME280;43102;52.014;-0.680;2022-08-24T03:19:00;100630;;;21.25;74.23
57250;BME280;43102;52.014;-0.680;2022-08-24T03:20:00;100630;;;21.25;74.23
57250;BME280;43102;52.014;-0.680;2022-08-24T03:21:00;100630;;;21.25;74.23
57250;BME280;43102;52.014;-0.680;2022-08-24T03:22:00;100630;;;21.25;74.23
57250;BME280;43102;52.014;-0.680;2022-08-24T03:23:00;100629;;;21.24;74.17
57250;BME280;43102;52.014;-0.680;2022-08-24T03:24:00;100629;;;21.24;74.17
57250;BME280;43102;52.014;-0.680;2022-08-24T03:25:00;100629;;;21.24;74.17
57250;BME280;43102;52.014;-0.680;2022-08-24T03:26:00;100629;;;21.24;74.17
57250;BME280;43102;52.014;-0.680;2022-08-24T03:27:00;100629;;;21.24;74.17
57250;BME280;43102;52.014;-0.680;2022-08-24T03:28:00;100625;;;21.16;74.26
57250;BME280;43102;52.014;-0.680;2022-08-24T03:29:00;100625;;;21.16;74.26
57250;BME280;43102;52.014;-0.680;2022-08-24T03:30:00;100625;;;21.16;74.26
57250;BME280;43102;52.014;-0.680;2022-08-24T03:31:00;100625;;;21.16;74.26
57250;BME280;43102;52.014;-0.680;2022-08-24T03:32:00;100625;;;21.16;74.26
57250;BME280;43102;52.014;-0.680;2022-08-24T03:33:00;100619;;;21.13;73.89
57250;BME280;43102;52.014;-0.680;2022-08-24T03:34:00;100619;;;21.13;73.89
57250;BME280;43102;52.014;-0.680;2022-08-24T03:35:00;100619;;;21.13;73.89
57250;BME280;43102;52.014;-0.680;2022-08-24T03:36:00;100619;;;21.13;73.89
57250;BME280;43102;52.014;-0.680;2022-08-24T03:37:00;100619;;;21.13;73.89
57250;BME280;43102;52.014;-0.680;2022-08-24T03:38:00;100618;;;21.05;74.13
57250;BME280;43102;52.014;-0.680;2022-08-24T03:39:00;100618;;;21.05;74.13
57250;BME280;43102;52.014;-0.680;2022-08-24T03:40:00;100618;;;21.05;74.13
57250;BME280;43102;52.014;-0.680;2022-08-24T03:41:00;100618;;;21.05;74.13
57250;BME280;43102;52.014;-0.680;2022-08-24T03:42:00;100618;;;21.05;74.13
57250;BME280;43102;52.014;-0.680;2022-08-24T03:43:00;100624;;;20.99;74.48
57250;BME280;43102;52.014;-0.680;2022-08-24T03:44:00;100624;;;20.99;74.48
57250;BME280;43102;52.014;-0.680;2022-08-24T03:45:00;100624;;;20.99;74.48
57250;BME280;43102;52.014;-0.680;2022-08-24T03:46:00;100624;;;20.99;74.48
57250;BME280;43102;52.014;-0.680;2022-08-24T03:47:00;100624;;;20.99;74.48
57250;BME280;43102;52.014;-0.680;2022-08-24T03:48:00;100626;;;20.94;74.52
57250;BME280;43102;52.014;-0.680;2022-08-24T03:49:00;100626;;;20.94;74.52
57250;BME280;43102;52.014;-0.680;2022-08-24T03:50:00;100626;;;20.94;74.52
57250;BME280;43102;52.014;-0.680;2022-08-24T03:51:00;100626;;;20.94;74.52
57250;BME280;43102;52.014;-0.680;2022-08-24T03:52:00;100626;;;20.94;74.52
57250;BME280;43102;52.014;-0.680;2022-08-24T03:53:00;100631;;;20.92;74.70
57250;BME280;43102;52.014;-0.680;2022-08-24T03:54:00;100631;;;20.92;74.70
57250;BME280;43102;52.014;-0.680;2022-08-24T03:55:01;100631;;;20.92;74.70
57250;BME280;43102;52.014;-0.680;2022-08-24T03:56:00;100631;;;20.92;74.70
57250;BME280;43102;52.014;-0.680;2022-08-24T03:57:00;100631;;;20.92;74.70
57250;BME280;43102;52.014;-0.680;2022-08-24T03:58:00;100630;;;20.87;74.62
57250;BME280;43102;52.014;-0.680;2022-08-24T03:59:00;100630;;;20.87;74.62
57250;BME280;43102;52.014;-0.680;2022-08-24T04:00:00;100630;;;20.87;74.62
57250;BME280;43102;52.014;-0.680;2022-08-24T04:01:00;100630;;;20.87;74.62
57250;BME280;43102;52.014;-0.680;2022-08-24T04:02:00;100630;;;20.87;74.62
57250;BME280;43102;52.014;-0.680;2022-08-24T04:03:00;100635;;;20.88;74.53
57250;BME280;43102;52.014;-0.680;2022-08-24T04:04:00;100635;;;20.88;74.53
57250;BME280;43102;52.014;-0.680;2022-08-24T04:05:00;100635;;;20.88;74.53
57250;BME280;43102;52.014;-0.680;2022-08-24T04:06:00;100635;;;20.88;74.53
57250;BME280;43102;52.014;-0.680;2022-08-24T04:07:00;100635;;;20.88;74.53
57250;BME280;43102;52.014;-0.680;2022-08-24T04:08:00;100638;;;20.86;74.95
57250;BME280;43102;52.014;-0.680;2022-08-24T04:09:00;100638;;;20.86;74.95
57250;BME280;43102;52.014;-0.680;2022-08-24T04:10:00;100638;;;20.86;74.95
57250;BME280;43102;52.014;-0.680;2022-08-24T04:11:00;100638;;;20.86;74.95
57250;BME280;43102;52.014;-0.680;2022-08-24T04:12:00;100638;;;20.86;74.95
57250;BME280;43102;52.014;-0.680;2022-08-24T04:13:00;100640;;;20.86;75.48
57250;BME280;43102;52.014;-0.680;2022-08-24T04:14:00;100640;;;20.86;75.48
57250;BME280;43102;52.014;-0.680;2022-08-24T04:15:00;100640;;;20.86;75.48
57250;BME280;43102;52.014;-0.680;2022-08-24T04:16:07;100640;;;20.86;75.48
57250;BME280;43102;52.014;-0.680;2022-08-24T04:17:00;100640;;;20.86;75.48
57250;BME280;43102;52.014;-0.680;2022-08-24T04:18:00;100640;;;20.87;75.14
57250;BME280;43102;52.014;-0.680;2022-08-24T04:19:00;100640;;;20.87;75.14
57250;BME280;43102;52.014;-0.680;2022-08-24T04:20:00;100640;;;20.87;75.14
57250;BME280;43102;52.014;-0.680;2022-08-24T04:21:00;100640;;;20.87;75.14
57250;BME280;43102;52.014;-0.680;2022-08-24T04:22:00;100640;;;20.87;75.14
57250;BME280;43102;52.014;-0.680;2022-08-24T04:23:00;100640;;;20.88;75.18
57250;BME280;43102;52.014;-0.680;2022-08-24T04:24:00;100640;;;20.88;75.18
57250;BME280;43102;52.014;-0.680;2022-08-24T04:25:00;100640;;;20.88;75.18
57250;BME280;43102;52.014;-0.680;2022-08-24T04:26:01;100640;;;20.88;75.18
57250;BME280;43102;52.014;-0.680;2022-08-24T04:27:00;100640;;;20.88;75.18
57250;BME280;43102;52.014;-0.680;2022-08-24T04:28:00;100643;;;20.89;75.92
57250;BME280;43102;52.014;-0.680;2022-08-24T04:29:00;100643;;;20.89;75.92
57250;BME280;43102;52.014;-0.680;2022-08-24T04:30:00;100643;;;20.89;75.92
57250;BME280;43102;52.014;-0.680;2022-08-24T04:31:02;100643;;;20.89;75.92
57250;BME280;43102;52.014;-0.680;2022-08-24T04:32:00;100643;;;20.89;75.92
57250;BME280;43102;52.014;-0.680;2022-08-24T04:33:00;100643;;;20.98;75.28
57250;BME280;43102;52.014;-0.680;2022-08-24T04:34:00;100643;;;20.98;75.28
57250;BME280;43102;52.014;-0.680;2022-08-24T04:35:00;100643;;;20.98;75.28
57250;BME280;43102;52.014;-0.680;2022-08-24T04:36:00;100643;;;20.98;75.28
57250;BME280;43102;52.014;-0.680;2022-08-24T04:37:00;100643;;;20.98;75.28
57250;BME280;43102;52.014;-0.680;2022-08-24T04:38:00;100638;;;20.99;75.62
57250;BME280;43102;52.014;-0.680;2022-08-24T04:39:00;100638;;;20.99;75.62
57250;BME280;43102;52.014;-0.680;2022-08-24T04:40:00;100638;;;20.99;75.62
57250;BME280;43102;52.014;-0.680;2022-08-24T04:41:01;100638;;;20.99;75.62
57250;BME280;43102;52.014;-0.680;2022-08-24T04:42:00;100638;;;20.99;75.62
57250;BME280;43102;52.014;-0.680;2022-08-24T04:43:00;100642;;;20.99;75.65
57250;BME280;43102;52.014;-0.680;2022-08-24T04:44:00;100642;;;20.99;75.65
57250;BME280;43102;52.014;-0.680;2022-08-24T04:45:00;100642;;;20.99;75.65
57250;BME280;43102;52.014;-0.680;2022-08-24T04:46:03;100642;;;20.99;75.65
57250;BME280;43102;52.014;-0.680;2022-08-24T04:47:00;100642;;;20.99;75.65
57250;BME280;43102;52.014;-0.680;2022-08-24T04:48:00;100639;;;21.00;75.96
57250;BME280;43102;52.014;-0.680;2022-08-24T04:49:00;100639;;;21.00;75.96
57250;BME280;43102;52.014;-0.680;2022-08-24T04:50:00;100639;;;21.00;75.96
57250;BME280;43102;52.014;-0.680;2022-08-24T04:51:01;100639;;;21.00;75.96
57250;BME280;43102;52.014;-0.680;2022-08-24T04:52:00;100639;;;21.00;75.96
57250;BME280;43102;52.014;-0.680;2022-08-24T04:53:00;100646;;;21.05;75.66
57250;BME280;43102;52.014;-0.680;2022-08-24T04:54:00;100646;;;21.05;75.66
57250;BME280;43102;52.014;-0.680;2022-08-24T04:55:00;100646;;;21.05;75.66
57250;BME280;43102;52.014;-0.680;2022-08-24T04:56:00;100646;;;21.05;75.66
57250;BME280;43102;52.014;-0.680;2022-08-24T04:57:00;100646;;;21.05;75.66
57250;BME280;43102;52.014;-0.680;2022-08-24T04:58:00;100650;;;21.08;75.61
57250;BME280;43102;52.014;-0.680;2022-08-24T04:59:00;100650;;;21.08;75.61
57250;BME280;43102;52.014;-0.680;2022-08-24T05:00:00;100650;;;21.08;75.61
57250;BME280;43102;52.014;-0.680;2022-08-24T05:01:00;100650;;;21.08;75.61
57250;BME280;43102;52.014;-0.680;2022-08-24T05:02:00;100650;;;21.08;75.61
57250;BME280;43102;52.014;-0.680;2022-08-24T05:03:00;100654;;;21.05;75.71
57250;BME280;43102;52.014;-0.680;2022-08-24T05:04:00;100654;;;21.05;75.71
57250;BME280;43102;52.014;-0.680;2022-08-24T05:05:00;100654;;;21.05;75.71
57250;BME280;43102;52.014;-0.680;2022-08-24T05:06:00;100654;;;21.05;75.71
57250;BME280;43102;52.014;-0.680;2022-08-24T05:07:00;100654;;;21.05;75.71
57250;BME280;43102;52.014;-0.680;2022-08-24T05:08:00;100657;;;21.06;75.84
57250;BME280;43102;52.014;-0.680;2022-08-24T05:09:04;100657;;;21.06;75.84
57250;BME280;43102;52.014;-0.680;2022-08-24T05:10:00;100657;;;21.06;75.84
57250;BME280;43102;52.014;-0.680;2022-08-24T05:11:02;100657;;;21.06;75.84
57250;BME280;43102;52.014;-0.680;2022-08-24T05:12:00;100657;;;21.06;75.84
57250;BME280;43102;52.014;-0.680;2022-08-24T05:13:00;100661;;;21.02;75.90
57250;BME280;43102;52.014;-0.680;2022-08-24T05:14:00;100661;;;21.02;75.90
57250;BME280;43102;52.014;-0.680;2022-08-24T05:15:00;100661;;;21.02;75.90
57250;BME280;43102;52.014;-0.680;2022-08-24T05:16:00;100661;;;21.02;75.90
57250;BME280;43102;52.014;-0.680;2022-08-24T05:17:00;100661;;;21.02;75.90
57250;BME280;43102;52.014;-0.680;2022-08-24T05:18:00;100664;;;21.03;75.89
57250;BME280;43102;52.014;-0.680;2022-08-24T05:19:00;100664;;;21.03;75.89
57250;BME280;43102;52.014;-0.680;2022-08-24T05:20:00;100664;;;21.03;75.89
57250;BME280;43102;52.014;-0.680;2022-08-24T05:21:00;100664;;;21.03;75.89
57250;BME280;43102;52.014;-0.680;2022-08-24T05:22:00;100664;;;21.03;75.89
57250;BME280;43102;52.014;-0.680;2022-08-24T05:23:00;100666;;;21.08;75.52